sensor_id;sensor_type;location;lat;lon;timestamp;temperature;humidity
32706;DHT22;19094;50.972;3.538;2022-08-20T00:01:44;24.60;58.60
32706;DHT22;19094;50.972;3.538;2022-08-20T00:04:10;24.60;58.60
32706;DHT22;19094;50.972;3.538;2022-08-20T00:06:36;24.60;58.40
32706;DHT22;19094;50.972;3.538;2022-08-20T00:09:02;24.60;58.40
32706;DHT22;19094;50.972;3.538;2022-08-20T00:11:28;24.60;58.50
32706;DHT22;19094;50.972;3.538;2022-08-20T00:13:57;24.50;58.30
32706;DHT22;19094;50.972;3.538;2022-08-20T00:16:25;24.60;58.50
32706;DHT22;19094;50.972;3.538;2022-08-20T00:18:52;24.60;58.50
32706;DHT22;19094;50.972;3.538;2022-08-20T00:21:19;24.60;58.30
32706;DHT22;19094;50.972;3.538;2022-08-20T00:23:49;24.50;58.30
32706;DHT22;19094;50.972;3.538;2022-08-20T00:26:15;24.50;58.30
32706;DHT22;19094;50.972;3.538;2022-08-20T00:28:42;24.50;58.40
32706;DHT22;19094;50.972;3.538;2022-08-20T00:31:10;24.50;58.40
32706;DHT22;19094;50.972;3.538;2022-08-20T00:33:36;24.50;58.40
32706;DHT22;19094;50.972;3.538;2022-08-20T00:36:03;24.50;58.50
32706;DHT22;19094;50.972;3.538;2022-08-20T00:38:38;24.50;58.30
32706;DHT22;19094;50.972;3.538;2022-08-20T00:41:06;24.50;58.50
32706;DHT22;19094;50.972;3.538;2022-08-20T00:46:19;24.40;58.40
32706;DHT22;19094;50.972;3.538;2022-08-20T00:48:48;24.40;58.00
32706;DHT22;19094;50.972;3.538;2022-08-20T00:54:08;24.40;58.00
32706;DHT22;19094;50.972;3.538;2022-08-20T00:56:36;24.40;58.50
32706;DHT22;19094;50.972;3.538;2022-08-20T00:59:04;24.30;58.50
32706;DHT22;19094;50.972;3.538;2022-08-20T01:01:38;24.30;58.80
32706;DHT22;19094;50.972;3.538;2022-08-20T01:04:04;24.30;58.70
32706;DHT22;19094;50.972;3.538;2022-08-20T01:06:30;24.30;58.80
32706;DHT22;19094;50.972;3.538;2022-08-20T01:08:57;24.30;58.70
32706;DHT22;19094;50.972;3.538;2022-08-20T01:11:27;24.30;58.90
32706;DHT22;19094;50.972;3.538;2022-08-20T01:14:02;24.30;58.60
32706;DHT22;19094;50.972;3.538;2022-08-20T01:16:48;24.20;58.70
32706;DHT22;19094;50.972;3.538;2022-08-20T01:19:16;24.20;58.90
32706;DHT22;19094;50.972;3.538;2022-08-20T01:21:44;24.20;58.80
32706;DHT22;19094;50.972;3.538;2022-08-20T01:24:45;24.20;58.80
32706;DHT22;19094;50.972;3.538;2022-08-20T01:27:12;24.20;58.10
32706;DHT22;19094;50.972;3.538;2022-08-20T01:29:38;24.10;58.90
32706;DHT22;19094;50.972;3.538;2022-08-20T01:32:05;24.20;58.80
32706;DHT22;19094;50.972;3.538;2022-08-20T01:34:31;24.20;59.00
32706;DHT22;19094;50.972;3.538;2022-08-20T01:36:58;24.20;58.80
32706;DHT22;19094;50.972;3.538;2022-08-20T01:39:27;24.20;58.70
32706;DHT22;19094;50.972;3.538;2022-08-20T01:44:39;24.20;58.30
32706;DHT22;19094;50.972;3.538;2022-08-20T01:49:43;24.10;58.40
32706;DHT22;19094;50.972;3.538;2022-08-20T01:52:14;24.10;58.90
32706;DHT22;19094;50.972;3.538;2022-08-20T01:54:42;24.10;58.40
32706;DHT22;19094;50.972;3.538;2022-08-20T01:57:14;24.10;58.60
32706;DHT22;19094;50.972;3.538;2022-08-20T01:59:40;24.10;58.70
32706;DHT22;19094;50.972;3.538;2022-08-20T02:02:07;24.10;58.60
32706;DHT22;19094;50.972;3.538;2022-08-20T02:04:33;24.00;58.70
32706;DHT22;19094;50.972;3.538;2022-08-20T02:07:00;24.10;58.70
32706;DHT22;19094;50.972;3.538;2022-08-20T02:09:32;24.10;58.60
32706;DHT22;19094;50.972;3.538;2022-08-20T02:11:59;24.00;58.70
32706;DHT22;19094;50.972;3.538;2022-08-20T02:14:26;24.00;58.60
32706;DHT22;19094;50.972;3.538;2022-08-20T02:16:52;24.00;58.70
32706;DHT22;19094;50.972;3.538;2022-08-20T02:19:22;24.00;58.50
32706;DHT22;19094;50.972;3.538;2022-08-20T02:21:52;24.00;58.60
32706;DHT22;19094;50.972;3.538;2022-08-20T02:24:20;24.00;58.60
32706;DHT22;19094;50.972;3.538;2022-08-20T02:26:46;23.90;58.80
32706;DHT22;19094;50.972;3.538;2022-08-20T02:29:12;23.90;58.80
32706;DHT22;19094;50.972;3.538;2022-08-20T02:31:40;23.90;58.90
32706;DHT22;19094;50.972;3.538;2022-08-20T02:34:07;23.90;58.60
32706;DHT22;19094;50.972;3.538;2022-08-20T02:36:34;23.90;58.60
32706;DHT22;19094;50.972;3.538;2022-08-20T02:39:06;23.80;58.80
32706;DHT22;19094;50.972;3.538;2022-08-20T02:41:34;23.80;59.00
32706;DHT22;19094;50.972;3.538;2022-08-20T02:44:00;23.80;59.20
32706;DHT22;19094;50.972;3.538;2022-08-20T02:46:26;23.80;59.10
32706;DHT22;19094;50.972;3.538;2022-08-20T02:48:54;23.80;59.00
32706;DHT22;19094;50.972;3.538;2022-08-20T02:51:20;23.70;59.10
32706;DHT22;19094;50.972;3.538;2022-08-20T02:53:45;23.70;59.30
32706;DHT22;19094;50.972;3.538;2022-08-20T02:56:11;23.70;59.30
32706;DHT22;19094;50.972;3.538;2022-08-20T02:58:39;23.70;59.10
32706;DHT22;19094;50.972;3.538;2022-08-20T03:01:07;23.70;59.10
32706;DHT22;19094;50.972;3.538;2022-08-20T03:03:33;23.70;59.20
32706;DHT22;19094;50.972;3.538;2022-08-20T03:05:59;23.70;59.10
32706;DHT22;19094;50.972;3.538;2022-08-20T03:08:26;23.60;59.40
32706;DHT22;19094;50.972;3.538;2022-08-20T03:10:54;23.70;59.30
32706;DHT22;19094;50.972;3.538;2022-08-20T03:13:21;23.70;58.90
32706;DHT22;19094;50.972;3.538;2022-08-20T03:15:52;23.60;59.40
32706;DHT22;19094;50.972;3.538;2022-08-20T03:18:19;23.60;59.40
32706;DHT22;19094;50.972;3.538;2022-08-20T03:20:46;23.60;59.40
32706;DHT22;19094;50.972;3.538;2022-08-20T03:23:12;23.60;59.30
32706;DHT22;19094;50.972;3.538;2022-08-20T03:25:38;23.60;59.50
32706;DHT22;19094;50.972;3.538;2022-08-20T03:28:04;23.50;59.30
32706;DHT22;19094;50.972;3.538;2022-08-20T03:30:30;23.40;59.80
32706;DHT22;19094;50.972;3.538;2022-08-20T03:32:56;23.40;59.80
32706;DHT22;19094;50.972;3.538;2022-08-20T03:35:24;23.40;59.80
32706;DHT22;19094;50.972;3.538;2022-08-20T03:37:50;23.40;59.80
32706;DHT22;19094;50.972;3.538;2022-08-20T03:40:20;23.30;60.20
32706;DHT22;19094;50.972;3.538;2022-08-20T03:42:46;23.40;60.10
32706;DHT22;19094;50.972;3.538;2022-08-20T03:45:12;23.30;60.00
32706;DHT22;19094;50.972;3.538;2022-08-20T03:47:39;23.30;59.90
32706;DHT22;19094;50.972;3.538;2022-08-20T03:50:08;23.30;59.90
32706;DHT22;19094;50.972;3.538;2022-08-20T03:52:34;23.20;60.00
32706;DHT22;19094;50.972;3.538;2022-08-20T03:55:00;23.30;59.90
32706;DHT22;19094;50.972;3.538;2022-08-20T03:57:26;23.20;60.00
32706;DHT22;19094;50.972;3.538;2022-08-20T03:59:53;23.20;60.20
32706;DHT22;19094;50.972;3.538;2022-08-20T04:02:19;23.10;60.30
32706;DHT22;19094;50.972;3.538;2022-08-20T04:04:44;23.20;60.10
32706;DHT22;19094;50.972;3.538;2022-08-20T04:07:13;23.20;60.30
32706;DHT22;19094;50.972;3.538;2022-08-20T04:09:39;23.10;60.30
32706;DHT22;19094;50.972;3.538;2022-08-20T04:12:05;23.10;60.20
32706;DHT22;19094;50.972;3.538;2022-08-20T04:14:32;23.10;60.40
32706;DHT22;19094;50.972;3.538;2022-08-20T04:16:58;23.10;60.50
32706;DHT22;19094;50.972;3.538;2022-08-20T04:19:23;23.10;60.30
32706;DHT22;19094;50.972;3.538;2022-08-20T04:21:49;23.10;60.70
32706;DHT22;19094;50.972;3.538;2022-08-20T04:24:15;23.00;60.60
32706;DHT22;19094;50.972;3.538;2022-08-20T04:26:41;23.00;60.30
32706;DHT22;19094;50.972;3.538;2022-08-20T04:29:07;23.00;60.50
32706;DHT22;19094;50.972;3.538;2022-08-20T04:31:33;23.00;60.50
32706;DHT22;19094;50.972;3.538;2022-08-20T04:34:01;23.00;61.00
32706;DHT22;19094;50.972;3.538;2022-08-20T04:36:27;23.00;60.60
32706;DHT22;19094;50.972;3.538;2022-08-20T04:38:53;23.00;60.60
32706;DHT22;19094;50.972;3.538;2022-08-20T04:41:19;22.90;60.80
32706;DHT22;19094;50.972;3.538;2022-08-20T04:43:45;22.90;60.80
32706;DHT22;19094;50.972;3.538;2022-08-20T04:46:11;22.80;61.00
32706;DHT22;19094;50.972;3.538;2022-08-20T04:48:38;22.90;61.20
32706;DHT22;19094;50.972;3.538;2022-08-20T04:51:06;22.80;60.90
32706;DHT22;19094;50.972;3.538;2022-08-20T04:53:33;22.80;61.00
32706;DHT22;19094;50.972;3.538;2022-08-20T04:56:00;22.80;61.00
32706;DHT22;19094;50.972;3.538;2022-08-20T04:58:33;22.80;61.20
32706;DHT22;19094;50.972;3.538;2022-08-20T05:01:04;22.80;61.20
32706;DHT22;19094;50.972;3.538;2022-08-20T05:03:31;22.80;61.10
32706;DHT22;19094;50.972;3.538;2022-08-20T05:05:58;22.70;61.30
32706;DHT22;19094;50.972;3.538;2022-08-20T05:08:24;22.70;61.60
32706;DHT22;19094;50.972;3.538;2022-08-20T05:10:51;22.70;61.60
32706;DHT22;19094;50.972;3.538;2022-08-20T05:13:18;22.70;61.70
32706;DHT22;19094;50.972;3.538;2022-08-20T05:15:44;22.60;61.70
32706;DHT22;19094;50.972;3.538;2022-08-20T05:18:18;22.60;61.70
32706;DHT22;19094;50.972;3.538;2022-08-20T05:20:45;22.60;61.40
32706;DHT22;19094;50.972;3.538;2022-08-20T05:23:12;22.60;61.50
32706;DHT22;19094;50.972;3.538;2022-08-20T05:25:41;22.60;61.70
32706;DHT22;19094;50.972;3.538;2022-08-20T05:28:10;22.60;61.60
32706;DHT22;19094;50.972;3.538;2022-08-20T05:30:43;22.60;61.70
32706;DHT22;19094;50.972;3.538;2022-08-20T05:33:10;22.60;61.60
32706;DHT22;19094;50.972;3.538;2022-08-20T05:35:38;22.60;61.70
32706;DHT22;19094;50.972;3.538;2022-08-20T05:38:11;22.60;61.80
32706;DHT22;19094;50.972;3.538;2022-08-20T05:40:37;22.60;61.60
32706;DHT22;19094;50.972;3.538;2022-08-20T05:43:05;22.60;61.60
32706;DHT22;19094;50.972;3.538;2022-08-20T05:45:32;22.60;61.70
32706;DHT22;19094;50.972;3.538;2022-08-20T05:48:02;22.60;61.80
32706;DHT22;19094;50.972;3.538;2022-08-20T05:50:28;22.60;61.70
32706;DHT22;19094;50.972;3.538;2022-08-20T05:52:54;22.60;62.40
32706;DHT22;19094;50.972;3.538;2022-08-20T05:55:20;22.60;61.60
32706;DHT22;19094;50.972;3.538;2022-08-20T05:57:48;22.60;61.50
32706;DHT22;19094;50.972;3.538;2022-08-20T06:00:15;22.60;61.70
32706;DHT22;19094;50.972;3.538;2022-08-20T06:02:41;22.60;61.60
32706;DHT22;19094;50.972;3.538;2022-08-20T06:05:25;22.60;61.50
32706;DHT22;19094;50.972;3.538;2022-08-20T06:07:52;22.60;61.60
32706;DHT22;19094;50.972;3.538;2022-08-20T06:10:18;22.50;61.70
32706;DHT22;19094;50.972;3.538;2022-08-20T06:12:44;22.60;61.90
32706;DHT22;19094;50.972;3.538;2022-08-20T06:15:11;22.60;61.50
32706;DHT22;19094;50.972;3.538;2022-08-20T06:17:37;22.60;61.60
32706;DHT22;19094;50.972;3.538;2022-08-20T06:20:05;22.70;61.40
32706;DHT22;19094;50.972;3.538;2022-08-20T06:22:32;22.60;61.00
32706;DHT22;19094;50.972;3.538;2022-08-20T06:24:58;22.70;61.40
32706;DHT22;19094;50.972;3.538;2022-08-20T06:27:24;22.70;61.20
32706;DHT22;19094;50.972;3.538;2022-08-20T06:29:51;22.80;61.10
32706;DHT22;19094;50.972;3.538;2022-08-20T06:32:18;22.80;60.80
32706;DHT22;19094;50.972;3.538;2022-08-20T06:34:45;22.80;61.00
32706;DHT22;19094;50.972;3.538;2022-08-20T06:37:20;22.80;61.00
32706;DHT22;19094;50.972;3.538;2022-08-20T06:39:46;22.80;61.20
32706;DHT22;19094;50.972;3.538;2022-08-20T06:42:11;22.80;61.20
32706;DHT22;19094;50.972;3.538;2022-08-20T06:44:38;22.90;61.10
32706;DHT22;19094;50.972;3.538;2022-08-20T06:47:04;22.80;60.70
32706;DHT22;19094;50.972;3.538;2022-08-20T06:49:32;22.70;61.00
32706;DHT22;19094;50.972;3.538;2022-08-20T06:51:58;22.80;61.00
32706;DHT22;19094;50.972;3.538;2022-08-20T06:54:24;22.80;60.80
32706;DHT22;19094;50.972;3.538;2022-08-20T06:56:49;22.80;61.00
32706;DHT22;19094;50.972;3.538;2022-08-20T06:59:18;22.90;60.80
32706;DHT22;19094;50.972;3.538;2022-08-20T07:01:44;22.90;60.50
32706;DHT22;19094;50.972;3.538;2022-08-20T07:04:09;22.90;60.60
32706;DHT22;19094;50.972;3.538;2022-08-20T07:06:35;22.90;60.40
32706;DHT22;19094;50.972;3.538;2022-08-20T07:09:00;22.90;60.50
32706;DHT22;19094;50.972;3.538;2022-08-20T07:11:26;23.00;60.70
32706;DHT22;19094;50.972;3.538;2022-08-20T07:13:52;23.00;60.10
32706;DHT22;19094;50.972;3.538;2022-08-20T07:16:18;23.00;60.40
32706;DHT22;19094;50.972;3.538;2022-08-20T07:18:43;23.00;60.50
32706;DHT22;19094;50.972;3.538;2022-08-20T07:21:09;23.00;60.30
32706;DHT22;19094;50.972;3.538;2022-08-20T07:23:36;23.00;60.40
32706;DHT22;19094;50.972;3.538;2022-08-20T07:26:02;23.00;60.20
32706;DHT22;19094;50.972;3.538;2022-08-20T07:28:28;23.00;60.10
32706;DHT22;19094;50.972;3.538;2022-08-20T07:30:56;23.10;60.00
32706;DHT22;19094;50.972;3.538;2022-08-20T07:33:41;23.10;60.00
32706;DHT22;19094;50.972;3.538;2022-08-20T07:36:07;23.10;59.90
32706;DHT22;19094;50.972;3.538;2022-08-20T07:38:34;23.10;59.80
32706;DHT22;19094;50.972;3.538;2022-08-20T07:41:03;23.10;59.80
32706;DHT22;19094;50.972;3.538;2022-08-20T07:43:30;23.10;59.80
32706;DHT22;19094;50.972;3.538;2022-08-20T07:45:57;23.20;59.60
32706;DHT22;19094;50.972;3.538;2022-08-20T07:48:27;23.20;59.50
32706;DHT22;19094;50.972;3.538;2022-08-20T07:50:54;23.30;59.40
32706;DHT22;19094;50.972;3.538;2022-08-20T07:53:20;23.20;59.40
32706;DHT22;19094;50.972;3.538;2022-08-20T07:55:46;23.40;59.40
32706;DHT22;19094;50.972;3.538;2022-08-20T07:58:13;23.20;59.50
32706;DHT22;19094;50.972;3.538;2022-08-20T08:00:39;23.30;59.30
32706;DHT22;19094;50.972;3.538;2022-08-20T08:03:06;23.50;58.70
32706;DHT22;19094;50.972;3.538;2022-08-20T08:05:34;23.50;59.00
32706;DHT22;19094;50.972;3.538;2022-08-20T08:08:00;23.50;58.80
32706;DHT22;19094;50.972;3.538;2022-08-20T08:10:26;23.50;58.60
32706;DHT22;19094;50.972;3.538;2022-08-20T08:12:57;23.60;58.40
32706;DHT22;19094;50.972;3.538;2022-08-20T08:15:32;23.60;58.40
32706;DHT22;19094;50.972;3.538;2022-08-20T08:18:12;23.60;58.00
32706;DHT22;19094;50.972;3.538;2022-08-20T08:20:41;23.50;58.60
32706;DHT22;19094;50.972;3.538;2022-08-20T08:23:09;23.70;57.60
32706;DHT22;19094;50.972;3.538;2022-08-20T08:25:39;23.80;57.10
32706;DHT22;19094;50.972;3.538;2022-08-20T08:28:07;23.90;56.70
32706;DHT22;19094;50.972;3.538;2022-08-20T08:30:42;23.80;56.80
32706;DHT22;19094;50.972;3.538;2022-08-20T08:33:19;23.80;57.00
32706;DHT22;19094;50.972;3.538;2022-08-20T08:36:05;23.90;56.60
32706;DHT22;19094;50.972;3.538;2022-08-20T08:38:33;24.00;56.60
32706;DHT22;19094;50.972;3.538;2022-08-20T08:41:10;24.10;56.20
32706;DHT22;19094;50.972;3.538;2022-08-20T08:43:38;24.10;56.30
32706;DHT22;19094;50.972;3.538;2022-08-20T08:46:08;24.10;56.10
32706;DHT22;19094;50.972;3.538;2022-08-20T08:48:41;24.10;56.30
32706;DHT22;19094;50.972;3.538;2022-08-20T08:51:10;24.10;56.10
32706;DHT22;19094;50.972;3.538;2022-08-20T08:53:45;24.00;56.60
32706;DHT22;19094;50.972;3.538;2022-08-20T08:56:13;23.90;56.60
32706;DHT22;19094;50.972;3.538;2022-08-20T08:58:40;23.80;57.30
32706;DHT22;19094;50.972;3.538;2022-08-20T09:01:14;23.80;57.60
32706;DHT22;19094;50.972;3.538;2022-08-20T09:03:44;23.70;57.50
32706;DHT22;19094;50.972;3.538;2022-08-20T09:06:17;23.90;57.20
32706;DHT22;19094;50.972;3.538;2022-08-20T09:09:04;23.90;57.40
32706;DHT22;19094;50.972;3.538;2022-08-20T09:11:30;24.10;57.30
32706;DHT22;19094;50.972;3.538;2022-08-20T09:13:56;24.10;57.20
32706;DHT22;19094;50.972;3.538;2022-08-20T09:16:24;24.10;56.60
32706;DHT22;19094;50.972;3.538;2022-08-20T09:18:50;24.20;56.50
32706;DHT22;19094;50.972;3.538;2022-08-20T09:21:17;24.00;56.80
32706;DHT22;19094;50.972;3.538;2022-08-20T09:23:43;23.90;56.70
32706;DHT22;19094;50.972;3.538;2022-08-20T09:26:09;24.30;56.00
32706;DHT22;19094;50.972;3.538;2022-08-20T09:28:34;24.50;56.00
32706;DHT22;19094;50.972;3.538;2022-08-20T09:31:01;24.50;54.40
32706;DHT22;19094;50.972;3.538;2022-08-20T09:33:26;24.50;55.50
32706;DHT22;19094;50.972;3.538;2022-08-20T09:35:52;24.50;54.90
32706;DHT22;19094;50.972;3.538;2022-08-20T09:38:18;24.00;51.00
32706;DHT22;19094;50.972;3.538;2022-08-20T09:40:44;23.90;51.00
32706;DHT22;19094;50.972;3.538;2022-08-20T09:43:09;23.80;51.00
32706;DHT22;19094;50.972;3.538;2022-08-20T09:45:35;23.60;50.70
32706;DHT22;19094;50.972;3.538;2022-08-20T09:48:02;23.60;50.00
32706;DHT22;19094;50.972;3.538;2022-08-20T09:50:30;23.90;49.70
32706;DHT22;19094;50.972;3.538;2022-08-20T09:52:57;24.10;48.70
32706;DHT22;19094;50.972;3.538;2022-08-20T09:55:31;24.40;48.60
32706;DHT22;19094;50.972;3.538;2022-08-20T09:57:59;24.50;48.30
32706;DHT22;19094;50.972;3.538;2022-08-20T10:00:25;24.60;48.50
32706;DHT22;19094;50.972;3.538;2022-08-20T10:02:51;24.70;47.60
32706;DHT22;19094;50.972;3.538;2022-08-20T10:05:16;24.80;47.80
32706;DHT22;19094;50.972;3.538;2022-08-20T10:07:42;24.90;47.80
32706;DHT22;19094;50.972;3.538;2022-08-20T10:10:10;24.90;47.80
32706;DHT22;19094;50.972;3.538;2022-08-20T10:12:36;24.50;49.30
32706;DHT22;19094;50.972;3.538;2022-08-20T10:15:03;24.70;48.40
32706;DHT22;19094;50.972;3.538;2022-08-20T10:17:29;24.60;48.80
32706;DHT22;19094;50.972;3.538;2022-08-20T10:19:54;24.80;47.50
32706;DHT22;19094;50.972;3.538;2022-08-20T10:22:20;24.90;47.50
32706;DHT22;19094;50.972;3.538;2022-08-20T10:24:46;25.00;47.00
32706;DHT22;19094;50.972;3.538;2022-08-20T10:27:12;25.00;47.30
32706;DHT22;19094;50.972;3.538;2022-08-20T10:29:37;25.00;47.60
32706;DHT22;19094;50.972;3.538;2022-08-20T10:32:12;24.50;46.40
32706;DHT22;19094;50.972;3.538;2022-08-20T10:34:39;24.40;46.20
32706;DHT22;19094;50.972;3.538;2022-08-20T10:37:05;24.30;46.70
32706;DHT22;19094;50.972;3.538;2022-08-20T10:39:31;24.20;47.10
32706;DHT22;19094;50.972;3.538;2022-08-20T10:41:57;24.20;48.10
32706;DHT22;19094;50.972;3.538;2022-08-20T10:44:24;24.30;48.70
32706;DHT22;19094;50.972;3.538;2022-08-20T10:46:49;24.10;47.10
32706;DHT22;19094;50.972;3.538;2022-08-20T10:49:15;24.30;47.90
32706;DHT22;19094;50.972;3.538;2022-08-20T10:51:41;23.90;48.20
32706;DHT22;19094;50.972;3.538;2022-08-20T10:54:06;23.70;50.90
32706;DHT22;19094;50.972;3.538;2022-08-20T10:56:32;24.00;49.40
32706;DHT22;19094;50.972;3.538;2022-08-20T10:58:58;24.40;47.40
32706;DHT22;19094;50.972;3.538;2022-08-20T11:01:23;24.50;48.60
32706;DHT22;19094;50.972;3.538;2022-08-20T11:03:49;24.60;48.50
32706;DHT22;19094;50.972;3.538;2022-08-20T11:06:15;24.70;48.10
32706;DHT22;19094;50.972;3.538;2022-08-20T11:08:40;24.80;47.40
32706;DHT22;19094;50.972;3.538;2022-08-20T11:11:06;24.80;47.00
32706;DHT22;19094;50.972;3.538;2022-08-20T11:13:33;24.70;47.10
32706;DHT22;19094;50.972;3.538;2022-08-20T11:16:00;24.80;47.30
32706;DHT22;19094;50.972;3.538;2022-08-20T11:18:25;25.00;46.80
32706;DHT22;19094;50.972;3.538;2022-08-20T11:20:51;25.10;46.30
32706;DHT22;19094;50.972;3.538;2022-08-20T11:23:17;25.20;45.70
32706;DHT22;19094;50.972;3.538;2022-08-20T11:25:43;25.20;45.60
32706;DHT22;19094;50.972;3.538;2022-08-20T11:28:09;25.30;46.30
32706;DHT22;19094;50.972;3.538;2022-08-20T11:30:36;25.40;46.10
32706;DHT22;19094;50.972;3.538;2022-08-20T11:33:03;25.40;45.20
32706;DHT22;19094;50.972;3.538;2022-08-20T11:35:31;25.50;45.30
32706;DHT22;19094;50.972;3.538;2022-08-20T11:37:58;25.50;45.90
32706;DHT22;19094;50.972;3.538;2022-08-20T11:40:25;25.50;46.90
32706;DHT22;19094;50.972;3.538;2022-08-20T11:42:51;25.60;46.00
32706;DHT22;19094;50.972;3.538;2022-08-20T11:45:16;25.70;46.00
32706;DHT22;19094;50.972;3.538;2022-08-20T11:47:42;25.70;46.60
32706;DHT22;19094;50.972;3.538;2022-08-20T11:50:15;25.70;46.60
32706;DHT22;19094;50.972;3.538;2022-08-20T11:52:41;25.80;45.70
32706;DHT22;19094;50.972;3.538;2022-08-20T11:55:09;25.80;46.30
32706;DHT22;19094;50.972;3.538;2022-08-20T11:57:39;25.80;45.50
32706;DHT22;19094;50.972;3.538;2022-08-20T12:00:08;25.90;45.70
32706;DHT22;19094;50.972;3.538;2022-08-20T12:02:38;25.50;45.30
32706;DHT22;19094;50.972;3.538;2022-08-20T12:05:05;25.20;46.60
32706;DHT22;19094;50.972;3.538;2022-08-20T12:07:31;25.50;45.70
32706;DHT22;19094;50.972;3.538;2022-08-20T12:09:56;25.80;44.70
32706;DHT22;19094;50.972;3.538;2022-08-20T12:12:23;26.00;44.70
32706;DHT22;19094;50.972;3.538;2022-08-20T12:14:53;26.10;45.60
32706;DHT22;19094;50.972;3.538;2022-08-20T12:17:26;26.30;45.40
32706;DHT22;19094;50.972;3.538;2022-08-20T12:19:55;26.30;44.60
32706;DHT22;19094;50.972;3.538;2022-08-20T12:22:23;26.40;43.90
32706;DHT22;19094;50.972;3.538;2022-08-20T12:24:49;26.40;44.10
32706;DHT22;19094;50.972;3.538;2022-08-20T12:27:35;26.60;44.40
32706;DHT22;19094;50.972;3.538;2022-08-20T12:30:05;26.70;45.50
32706;DHT22;19094;50.972;3.538;2022-08-20T12:32:32;26.70;45.20
32706;DHT22;19094;50.972;3.538;2022-08-20T12:34:58;26.60;42.90
32706;DHT22;19094;50.972;3.538;2022-08-20T12:37:26;26.70;43.90
32706;DHT22;19094;50.972;3.538;2022-08-20T12:39:54;26.80;42.80
32706;DHT22;19094;50.972;3.538;2022-08-20T12:42:21;26.80;44.10
32706;DHT22;19094;50.972;3.538;2022-08-20T12:44:47;26.70;44.70
32706;DHT22;19094;50.972;3.538;2022-08-20T12:47:28;26.70;44.40
32706;DHT22;19094;50.972;3.538;2022-08-20T12:49:57;26.60;44.30
32706;DHT22;19094;50.972;3.538;2022-08-20T12:52:26;26.60;44.80
32706;DHT22;19094;50.972;3.538;2022-08-20T12:54:53;26.70;44.90
32706;DHT22;19094;50.972;3.538;2022-08-20T12:59:47;26.70;45.30
32706;DHT22;19094;50.972;3.538;2022-08-20T13:02:13;26.80;44.00
32706;DHT22;19094;50.972;3.538;2022-08-20T13:04:41;26.80;45.00
32706;DHT22;19094;50.972;3.538;2022-08-20T13:07:10;26.80;44.20
32706;DHT22;19094;50.972;3.538;2022-08-20T13:09:35;26.70;45.90
32706;DHT22;19094;50.972;3.538;2022-08-20T13:12:01;26.70;45.30
32706;DHT22;19094;50.972;3.538;2022-08-20T13:14:27;26.70;46.30
32706;DHT22;19094;50.972;3.538;2022-08-20T13:17:00;26.60;46.20
32706;DHT22;19094;50.972;3.538;2022-08-20T13:19:27;26.60;46.10
32706;DHT22;19094;50.972;3.538;2022-08-20T13:21:53;26.60;46.20
32706;DHT22;19094;50.972;3.538;2022-08-20T13:24:19;26.70;45.70
32706;DHT22;19094;50.972;3.538;2022-08-20T13:26:45;26.80;45.30
32706;DHT22;19094;50.972;3.538;2022-08-20T13:29:11;26.80;45.30
32706;DHT22;19094;50.972;3.538;2022-08-20T13:31:37;26.80;46.00
32706;DHT22;19094;50.972;3.538;2022-08-20T13:34:03;26.80;45.30
32706;DHT22;19094;50.972;3.538;2022-08-20T13:36:29;26.80;45.20
32706;DHT22;19094;50.972;3.538;2022-08-20T13:38:55;26.80;46.20
32706;DHT22;19094;50.972;3.538;2022-08-20T13:41:21;26.90;45.40
32706;DHT22;19094;50.972;3.538;2022-08-20T13:43:47;26.80;46.20
32706;DHT22;19094;50.972;3.538;2022-08-20T13:46:12;26.80;45.20
32706;DHT22;19094;50.972;3.538;2022-08-20T13:48:38;26.80;45.80
32706;DHT22;19094;50.972;3.538;2022-08-20T13:51:04;26.80;45.70
32706;DHT22;19094;50.972;3.538;2022-08-20T13:53:30;26.80;45.70
32706;DHT22;19094;50.972;3.538;2022-08-20T13:55:56;26.90;44.30
32706;DHT22;19094;50.972;3.538;2022-08-20T13:58:22;27.00;44.80
32706;DHT22;19094;50.972;3.538;2022-08-20T14:00:48;27.20;44.10
32706;DHT22;19094;50.972;3.538;2022-08-20T14:03:14;27.40;44.00
32706;DHT22;19094;50.972;3.538;2022-08-20T14:05:40;27.60;44.20
32706;DHT22;19094;50.972;3.538;2022-08-20T14:08:10;27.80;44.80
32706;DHT22;19094;50.972;3.538;2022-08-20T14:10:37;27.90;44.70
32706;DHT22;19094;50.972;3.538;2022-08-20T14:13:03;28.00;44.70
32706;DHT22;19094;50.972;3.538;2022-08-20T14:15:32;28.30;43.10
32706;DHT22;19094;50.972;3.538;2022-08-20T14:17:58;28.50;41.40
32706;DHT22;19094;50.972;3.538;2022-08-20T14:20:26;28.80;40.70
32706;DHT22;19094;50.972;3.538;2022-08-20T14:22:53;28.80;41.90
32706;DHT22;19094;50.972;3.538;2022-08-20T14:25:20;28.80;41.50
32706;DHT22;19094;50.972;3.538;2022-08-20T14:27:46;28.70;41.70
32706;DHT22;19094;50.972;3.538;2022-08-20T14:30:14;28.60;41.70
32706;DHT22;19094;50.972;3.538;2022-08-20T14:32:41;28.50;42.30
32706;DHT22;19094;50.972;3.538;2022-08-20T14:35:08;28.40;42.10
32706;DHT22;19094;50.972;3.538;2022-08-20T14:37:37;28.40;42.00
32706;DHT22;19094;50.972;3.538;2022-08-20T14:40:06;28.40;41.70
32706;DHT22;19094;50.972;3.538;2022-08-20T14:42:34;28.30;42.50
32706;DHT22;19094;50.972;3.538;2022-08-20T14:44:59;28.30;42.30
32706;DHT22;19094;50.972;3.538;2022-08-20T14:47:28;28.20;40.90
32706;DHT22;19094;50.972;3.538;2022-08-20T14:49:56;28.20;42.20
32706;DHT22;19094;50.972;3.538;2022-08-20T14:52:26;28.20;42.40
32706;DHT22;19094;50.972;3.538;2022-08-20T14:54:51;28.10;42.00
32706;DHT22;19094;50.972;3.538;2022-08-20T14:57:18;28.30;40.70
32706;DHT22;19094;50.972;3.538;2022-08-20T14:59:45;28.30;41.80
32706;DHT22;19094;50.972;3.538;2022-08-20T15:02:12;28.30;42.10
32706;DHT22;19094;50.972;3.538;2022-08-20T15:04:40;28.30;39.50
32706;DHT22;19094;50.972;3.538;2022-08-20T15:07:11;28.00;39.40
32706;DHT22;19094;50.972;3.538;2022-08-20T15:09:38;27.80;39.40
32706;DHT22;19094;50.972;3.538;2022-08-20T15:12:04;27.70;40.80
32706;DHT22;19094;50.972;3.538;2022-08-20T15:14:30;27.30;40.90
32706;DHT22;19094;50.972;3.538;2022-08-20T15:16:56;27.40;42.90
32706;DHT22;19094;50.972;3.538;2022-08-20T15:19:22;27.50;42.60
32706;DHT22;19094;50.972;3.538;2022-08-20T15:21:47;27.00;41.00
32706;DHT22;19094;50.972;3.538;2022-08-20T15:24:14;26.60;42.10
32706;DHT22;19094;50.972;3.538;2022-08-20T15:26:40;26.60;42.80
32706;DHT22;19094;50.972;3.538;2022-08-20T15:29:06;26.70;46.50
32706;DHT22;19094;50.972;3.538;2022-08-20T15:31:32;27.00;44.80
32706;DHT22;19094;50.972;3.538;2022-08-20T15:33:58;27.20;48.40
32706;DHT22;19094;50.972;3.538;2022-08-20T15:36:24;27.30;44.40
32706;DHT22;19094;50.972;3.538;2022-08-20T15:38:50;27.40;44.50
32706;DHT22;19094;50.972;3.538;2022-08-20T15:41:16;27.30;47.60
32706;DHT22;19094;50.972;3.538;2022-08-20T15:43:45;27.30;47.60
32706;DHT22;19094;50.972;3.538;2022-08-20T15:46:11;27.20;47.40